Cedar Bonnet Island, New Jersey
Current Conditions -  °F | °C
As of 3:35 AM on Monday 22 Dec 2014 (Local Time) from KMJX Reporting Station
Overcast Overcast  
Wind Chill: 30°   Ceiling: 2100
Heat Index: 34°   Visibility: 10mi
Dew Point: 28°   Wind: 5mph
Humidity: 81%   Direction: 360°N
Pressure: 30.32"   Gusts: NA
Location:  39.7102°N, 74.2577°W
Report Text: KMJX 220835Z AUTO 36004KT 10SM OVC021 01/M02 A3032 RMK AO1
Loading
Personal Weather Stations






























Interactive Weather Map New forecast layout! Learn more

10-Day Weather Forecast

Advertisements
Track Severe Weather on mobile